Time;durP1;ratioP1;P1;durP2;ratioP2;P2;SDS_P1;SDS_P2;PMS_P1;PMS_P2;Temp;Humidity;BMP_temperature;BMP_pressure;BME280_temperature;BME280_humidity;BME280_pressure;Samples;Min_cycle;Max_cycle;Signal;HPM_P1;HPM_P2
2022/03/02 00:00:42;;;;;;;40.75;30.27;;;;;;;;;;5031227;28;20025;-58
2022/03/02 00:03:07;;;;;;;42.85;27.52;;;;;;;;;;5029682;28;20508;-58
2022/03/02 00:05:33;;;;;;;47.80;28.70;;;;;;;;;;5031637;28;20112;-58
2022/03/02 00:07:58;;;;;;;38.28;26.05;;;;;;;;;;5033780;28;20033;-57
2022/03/02 00:10:24;;;;;;;35.80;27.05;;;;;;;;;;5051228;28;20017;-58
2022/03/02 00:12:49;;;;;;;37.20;26.37;;;;;;;;;;5049959;28;20033;-58
2022/03/02 00:15:14;;;;;;;37.70;28.70;;;;;;;;;;5050643;28;20423;-58
2022/03/02 00:17:40;;;;;;;30.65;23.23;;;;;;;;;;5049698;28;20040;-58
2022/03/02 00:20:05;;;;;;;40.10;24.67;;;;;;;;;;5050968;28;20072;-58
2022/03/02 00:22:30;;;;;;;38.92;28.98;;;;;;;;;;5048929;28;20525;-58
2022/03/02 00:24:56;;;;;;;38.77;29.30;;;;;;;;;;5032379;28;20076;-57
2022/03/02 00:27:23;;;;;;;37.73;28.90;;;;;;;;;;5030146;28;20452;-58
2022/03/02 00:29:48;;;;;;;31.17;23.30;;;;;;;;;;5030931;28;21064;-58
2022/03/02 00:32:13;;;;;;;37.75;23.10;;;;;;;;;;5029802;28;20033;-58
2022/03/02 00:34:38;;;;;;;35.85;22.23;;;;;;;;;;5031431;28;20030;-58
2022/03/02 00:37:04;;;;;;;37.67;26.70;;;;;;;;;;5029286;28;20088;-58
2022/03/02 00:39:29;;;;;;;39.35;27.48;;;;;;;;;;5032286;28;20029;-58
2022/03/02 00:41:54;;;;;;;29.90;24.47;;;;;;;;;;5029793;28;20036;-59
2022/03/02 00:44:19;;;;;;;37.53;27.17;;;;;;;;;;5030888;28;20067;-58
2022/03/02 00:46:45;;;;;;;34.45;24.45;;;;;;;;;;5029854;28;20091;-58
2022/03/02 00:49:11;;;;;;;40.15;24.63;;;;;;;;;;5030827;28;20029;-58
2022/03/02 00:51:36;;;;;;;35.28;24.42;;;;;;;;;;5030373;28;20037;-58
2022/03/02 00:54:01;;;;;;;40.95;29.63;;;;;;;;;;5050686;28;20425;-58
2022/03/02 00:56:26;;;;;;;45.50;29.45;;;;;;;;;;5049656;28;20483;-58
2022/03/02 00:58:52;;;;;;;50.85;30.65;;;;;;;;;;5050970;28;20456;-59
2022/03/02 01:01:17;;;;;;;46.92;28.73;;;;;;;;;;5049546;28;20025;-58
2022/03/02 01:03:42;;;;;;;51.00;27.90;;;;;;;;;;5050781;28;20103;-58
2022/03/02 01:06:08;;;;;;;33.88;23.98;;;;;;;;;;5050412;28;20424;-58
2022/03/02 01:08:34;;;;;;;31.52;23.33;;;;;;;;;;5029724;28;20040;-58
2022/03/02 01:10:59;;;;;;;32.33;22.87;;;;;;;;;;5030731;28;20018;-58
2022/03/02 01:13:24;;;;;;;40.53;25.02;;;;;;;;;;5029054;28;20785;-57
2022/03/02 01:15:50;;;;;;;39.22;25.13;;;;;;;;;;5031029;28;20014;-58
2022/03/02 01:18:15;;;;;;;34.15;25.88;;;;;;;;;;5029145;28;20034;-58
2022/03/02 01:20:40;;;;;;;35.72;25.52;;;;;;;;;;5030419;28;20025;-58
2022/03/02 01:23:05;;;;;;;42.00;27.67;;;;;;;;;;5030102;28;20053;-58
2022/03/02 01:25:30;;;;;;;33.35;25.10;;;;;;;;;;5030806;28;20421;-57
2022/03/02 01:27:56;;;;;;;42.53;28.47;;;;;;;;;;5028464;28;20037;-58
2022/03/02 01:30:21;;;;;;;34.50;25.30;;;;;;;;;;5031214;28;20057;-58
2022/03/02 01:32:47;;;;;;;41.50;27.90;;;;;;;;;;5029254;28;20030;-58
2022/03/02 01:35:12;;;;;;;40.43;27.50;;;;;;;;;;5032353;28;20016;-58
2022/03/02 01:37:37;;;;;;;45.33;27.73;;;;;;;;;;5032771;28;21167;-58
2022/03/02 01:40:02;;;;;;;32.50;24.43;;;;;;;;;;5034443;28;20021;-58
2022/03/02 01:42:28;;;;;;;41.38;28.77;;;;;;;;;;5033048;28;20034;-58
2022/03/02 01:44:53;;;;;;;37.57;25.60;;;;;;;;;;5034226;28;20022;-58
2022/03/02 01:47:18;;;;;;;47.00;28.33;;;;;;;;;;5032777;28;20803;-58
2022/03/02 01:49:43;;;;;;;42.75;27.38;;;;;;;;;;5034703;28;20019;-58
2022/03/02 01:52:09;;;;;;;48.23;29.37;;;;;;;;;;5037464;28;20435;-58
2022/03/02 01:54:34;;;;;;;44.22;28.67;;;;;;;;;;5054352;28;20099;-58
2022/03/02 01:56:59;;;;;;;53.53;32.43;;;;;;;;;;5052759;28;20113;-58
2022/03/02 01:59:25;;;;;;;45.73;31.73;;;;;;;;;;5053878;28;20420;-58
2022/03/02 02:01:51;;;;;;;45.20;28.35;;;;;;;;;;5052612;28;20993;-58
2022/03/02 02:04:16;;;;;;;49.05;32.83;;;;;;;;;;5053849;28;20027;-58
2022/03/02 02:06:41;;;;;;;45.33;31.10;;;;;;;;;;5051912;28;20124;-58
2022/03/02 02:09:07;;;;;;;41.15;29.65;;;;;;;;;;5053737;28;20443;-58
2022/03/02 02:11:33;;;;;;;40.47;28.10;;;;;;;;;;5052409;28;20029;-58
2022/03/02 02:13:59;;;;;;;41.95;28.05;;;;;;;;;;5053536;28;20071;-58
2022/03/02 02:16:24;;;;;;;42.67;31.58;;;;;;;;;;5052402;28;20021;-58
2022/03/02 02:18:54;;;;;;;38.08;27.58;;;;;;;;;;5053758;28;20029;-58
2022/03/02 02:21:20;;;;;;;51.13;32.22;;;;;;;;;;5046261;28;20680;-58
2022/03/02 02:23:45;;;;;;;45.10;29.17;;;;;;;;;;5033546;28;20045;-58
2022/03/02 02:26:11;;;;;;;36.13;27.70;;;;;;;;;;5033510;28;20021;-58
2022/03/02 02:28:36;;;;;;;43.50;30.08;;;;;;;;;;5031978;28;20091;-58
2022/03/02 02:31:02;;;;;;;42.47;28.83;;;;;;;;;;5033519;28;20021;-58
2022/03/02 02:33:27;;;;;;;45.72;29.15;;;;;;;;;;5032199;28;20041;-58
2022/03/02 02:35:53;;;;;;;46.20;29.88;;;;;;;;;;5033502;28;20028;-58
2022/03/02 02:38:19;;;;;;;41.72;31.60;;;;;;;;;;5031850;28;20483;-58
2022/03/02 02:40:45;;;;;;;41.75;26.50;;;;;;;;;;5034805;28;20030;-58
2022/03/02 02:43:10;;;;;;;36.65;25.85;;;;;;;;;;5031362;28;20033;-58
2022/03/02 02:45:36;;;;;;;40.90;27.80;;;;;;;;;;5032954;28;20029;-58
2022/03/02 02:48:01;;;;;;;32.38;23.85;;;;;;;;;;5030734;28;20041;-59
2022/03/02 02:50:30;;;;;;;35.78;25.40;;;;;;;;;;5033167;28;20017;-59
2022/03/02 02:52:56;;;;;;;35.58;27.35;;;;;;;;;;5043783;28;20076;-59
2022/03/02 02:55:22;;;;;;;40.65;29.50;;;;;;;;;;5053145;28;20090;-58
2022/03/02 02:57:48;;;;;;;36.33;27.13;;;;;;;;;;5051231;28;20619;-58
2022/03/02 03:00:15;;;;;;;36.55;25.67;;;;;;;;;;5053035;28;20092;-58
2022/03/02 03:02:40;;;;;;;37.95;24.55;;;;;;;;;;5051550;28;20033;-59
2022/03/02 03:05:10;;;;;;;42.95;29.63;;;;;;;;;;5052537;28;20024;-59
2022/03/02 03:07:35;;;;;;;36.00;25.27;;;;;;;;;;5039398;28;20057;-58
2022/03/02 03:10:00;;;;;;;39.40;28.25;;;;;;;;;;5032770;28;20502;-58
2022/03/02 03:12:25;;;;;;;36.75;25.85;;;;;;;;;;5030860;28;20049;-58
2022/03/02 03:14:50;;;;;;;40.03;29.30;;;;;;;;;;5032863;28;20116;-58
2022/03/02 03:17:16;;;;;;;39.30;28.13;;;;;;;;;;5031084;28;20025;-58
2022/03/02 03:19:41;;;;;;;40.53;27.58;;;;;;;;;;5032673;28;20036;-58
2022/03/02 03:22:06;;;;;;;35.70;25.63;;;;;;;;;;5030849;28;20381;-58
2022/03/02 03:24:32;;;;;;;34.05;23.10;;;;;;;;;;5032895;28;20018;-58
2022/03/02 03:26:57;;;;;;;41.28;28.50;;;;;;;;;;5030258;28;20400;-58
2022/03/02 03:29:22;;;;;;;39.45;25.15;;;;;;;;;;5032507;28;20033;-58
2022/03/02 03:31:47;;;;;;;34.50;27.90;;;;;;;;;;5031109;28;20083;-58
2022/03/02 03:34:12;;;;;;;38.33;29.45;;;;;;;;;;5031727;28;20412;-58
2022/03/02 03:36:38;;;;;;;37.97;26.42;;;;;;;;;;5030908;28;20040;-58
2022/03/02 03:39:03;;;;;;;41.40;26.55;;;;;;;;;;5032411;28;20045;-58
2022/03/02 03:41:28;;;;;;;33.85;24.23;;;;;;;;;;5030410;28;20495;-58
2022/03/02 03:43:53;;;;;;;40.20;27.23;;;;;;;;;;5032182;28;20048;-58
2022/03/02 03:46:18;;;;;;;34.10;23.50;;;;;;;;;;5031012;28;20075;-57
2022/03/02 03:48:44;;;;;;;40.38;27.08;;;;;;;;;;5031752;28;21338;-58
2022/03/02 03:51:09;;;;;;;41.40;27.93;;;;;;;;;;5033432;28;20361;-58
2022/03/02 03:53:34;;;;;;;40.97;28.25;;;;;;;;;;5050472;28;20125;-58
2022/03/02 03:55:59;;;;;;;39.47;26.73;;;;;;;;;;5051462;28;20028;-59
2022/03/02 03:58:24;;;;;;;44.28;29.75;;;;;;;;;;5050025;28;20419;-58
2022/03/02 04:00:49;;;;;;;38.65;27.85;;;;;;;;;;5051911;28;20107;-58
2022/03/02 04:03:15;;;;;;;47.55;31.58;;;;;;;;;;5049880;28;20048;-58
2022/03/02 04:05:40;;;;;;;46.38;32.45;;;;;;;;;;5051612;28;20028;-58
2022/03/02 04:08:06;;;;;;;37.78;29.83;;;;;;;;;;5030283;28;20072;-59
2022/03/02 04:10:31;;;;;;;40.65;28.33;;;;;;;;;;5031939;28;20017;-58
2022/03/02 04:12:56;;;;;;;44.73;29.47;;;;;;;;;;5029569;28;20064;-58
2022/03/02 04:15:22;;;;;;;42.60;28.77;;;;;;;;;;5031645;28;20074;-58
2022/03/02 04:17:48;;;;;;;47.17;28.05;;;;;;;;;;5030346;28;20084;-58
2022/03/02 04:20:13;;;;;;;41.05;29.92;;;;;;;;;;5031021;28;20056;-58
2022/03/02 04:22:38;;;;;;;38.00;28.50;;;;;;;;;;5031066;28;20049;-58
2022/03/02 04:25:03;;;;;;;39.13;26.17;;;;;;;;;;5031376;28;20485;-58
2022/03/02 04:27:28;;;;;;;41.63;27.08;;;;;;;;;;5029802;28;20037;-58
2022/03/02 04:29:54;;;;;;;38.97;28.67;;;;;;;;;;5031078;28;20025;-58
2022/03/02 04:32:19;;;;;;;44.40;28.80;;;;;;;;;;5029883;28;20520;-58
2022/03/02 04:34:44;;;;;;;39.55;28.45;;;;;;;;;;5031112;28;20032;-58
2022/03/02 04:37:09;;;;;;;46.23;28.57;;;;;;;;;;5029724;28;20033;-58
2022/03/02 04:39:35;;;;;;;66.03;31.90;;;;;;;;;;5031538;28;20450;-58
2022/03/02 04:42:00;;;;;;;40.08;27.23;;;;;;;;;;5046783;28;20542;-58
2022/03/02 04:44:25;;;;;;;39.55;26.50;;;;;;;;;;5051266;28;20573;-58
2022/03/02 04:46:51;;;;;;;38.07;26.77;;;;;;;;;;5049653;28;20037;-58
2022/03/02 04:49:18;;;;;;;39.97;28.92;;;;;;;;;;5050604;28;20447;-58
2022/03/02 04:51:43;;;;;;;43.75;26.48;;;;;;;;;;5049362;28;20056;-58
2022/03/02 04:54:08;;;;;;;39.95;29.58;;;;;;;;;;5051005;28;20480;-58
2022/03/02 04:56:34;;;;;;;34.50;28.20;;;;;;;;;;5049274;28;20525;-57
2022/03/02 04:59:01;;;;;;;34.35;25.63;;;;;;;;;;5050967;28;20040;-58
2022/03/02 05:01:27;;;;;;;39.03;29.27;;;;;;;;;;5049687;28;20025;-58
2022/03/02 05:03:52;;;;;;;39.33;26.58;;;;;;;;;;5050898;28;20021;-58
2022/03/02 05:06:17;;;;;;;43.85;30.85;;;;;;;;;;5047589;28;20021;-58
2022/03/02 05:08:42;;;;;;;33.65;25.40;;;;;;;;;;5050836;28;20025;-58
2022/03/02 05:11:07;;;;;;;42.42;25.77;;;;;;;;;;5053048;28;20068;-60
2022/03/02 05:13:34;;;;;;;39.70;27.58;;;;;;;;;;5042722;28;20116;-58
2022/03/02 05:15:59;;;;;;;40.58;28.50;;;;;;;;;;5046779;28;20527;-58
2022/03/02 05:18:25;;;;;;;43.13;28.38;;;;;;;;;;5046032;28;20037;-58
2022/03/02 05:20:50;;;;;;;39.05;27.55;;;;;;;;;;5045691;28;20025;-58
2022/03/02 05:23:15;;;;;;;49.72;30.02;;;;;;;;;;5052966;28;20056;-57
2022/03/02 05:25:40;;;;;;;54.47;32.85;;;;;;;;;;5054488;28;20217;-58
2022/03/02 05:28:05;;;;;;;41.72;27.33;;;;;;;;;;5052701;28;20060;-58
2022/03/02 05:30:30;;;;;;;35.17;26.70;;;;;;;;;;5054769;28;20079;-57
2022/03/02 05:32:56;;;;;;;49.22;30.52;;;;;;;;;;5052604;28;20033;-58
2022/03/02 05:35:21;;;;;;;36.42;25.23;;;;;;;;;;5054774;28;20036;-57
2022/03/02 05:37:47;;;;;;;40.40;26.60;;;;;;;;;;5049392;28;20087;-58
2022/03/02 05:40:13;;;;;;;40.70;28.80;;;;;;;;;;5054132;28;20821;-58
2022/03/02 05:42:39;;;;;;;36.47;26.17;;;;;;;;;;5052922;28;20451;-58
2022/03/02 05:45:04;;;;;;;41.88;27.00;;;;;;;;;;5054387;28;20017;-58
2022/03/02 05:47:30;;;;;;;42.28;26.98;;;;;;;;;;5052603;28;20108;-58
2022/03/02 05:49:55;;;;;;;40.67;26.40;;;;;;;;;;5053966;28;20024;-58
2022/03/02 05:52:20;;;;;;;37.90;26.17;;;;;;;;;;5052833;28;20120;-58
2022/03/02 05:54:45;;;;;;;38.55;27.35;;;;;;;;;;5053992;28;20032;-58
2022/03/02 05:57:11;;;;;;;46.05;28.13;;;;;;;;;;5052570;28;20048;-58
2022/03/02 05:59:36;;;;;;;40.50;27.80;;;;;;;;;;5054157;28;20021;-58
2022/03/02 06:02:01;;;;;;;40.88;27.92;;;;;;;;;;5052288;28;20480;-58
2022/03/02 06:04:26;;;;;;;42.28;28.90;;;;;;;;;;5054004;28;20029;-58
2022/03/02 06:06:51;;;;;;;40.70;28.05;;;;;;;;;;5052693;28;20036;-57
2022/03/02 06:09:17;;;;;;;51.72;28.63;;;;;;;;;;5053367;28;20083;-58
2022/03/02 06:11:43;;;;;;;37.95;28.08;;;;;;;;;;5052329;28;20036;-58
2022/03/02 06:14:09;;;;;;;49.22;32.40;;;;;;;;;;5053836;28;20052;-58
2022/03/02 06:16:34;;;;;;;47.70;29.35;;;;;;;;;;5052239;28;20471;-58
2022/03/02 06:18:59;;;;;;;38.05;28.95;;;;;;;;;;5053509;28;20025;-58
2022/03/02 06:21:28;;;;;;;48.95;29.85;;;;;;;;;;5052067;28;20070;-57
2022/03/02 06:23:54;;;;;;;44.20;31.13;;;;;;;;;;5053070;28;20095;-58
2022/03/02 06:26:22;;;;;;;43.70;31.30;;;;;;;;;;5052376;28;20024;-57
2022/03/02 06:28:47;;;;;;;42.42;29.23;;;;;;;;;;5053666;28;20069;-58
2022/03/02 06:31:15;;;;;;;46.90;31.33;;;;;;;;;;5053421;28;20084;-58
2022/03/02 06:33:40;;;;;;;42.08;28.90;;;;;;;;;;5051778;28;20067;-57
2022/03/02 06:36:06;;;;;;;46.93;29.67;;;;;;;;;;5053660;28;20009;-58
2022/03/02 06:38:31;;;;;;;38.67;29.40;;;;;;;;;;5051986;28;20447;-57
2022/03/02 06:41:04;;;;;;;45.83;29.33;;;;;;;;;;5052922;28;20371;-58
2022/03/02 06:43:34;;;;;;;50.55;30.30;;;;;;;;;;5051743;28;20800;-58
2022/03/02 06:46:06;;;;;;;47.90;31.08;;;;;;;;;;5053370;28;20445;-58
2022/03/02 06:48:34;;;;;;;41.28;28.63;;;;;;;;;;5051609;28;20037;-58
2022/03/02 06:51:00;;;;;;;43.40;29.30;;;;;;;;;;5053100;28;20016;-58
2022/03/02 06:53:31;;;;;;;39.75;27.17;;;;;;;;;;5051444;28;20057;-58
2022/03/02 06:55:57;;;;;;;44.88;30.65;;;;;;;;;;5053132;28;20025;-58
2022/03/02 06:58:23;;;;;;;46.55;29.52;;;;;;;;;;5051655;28;20033;-58
2022/03/02 07:00:51;;;;;;;43.10;29.55;;;;;;;;;;5053137;28;20100;-58
2022/03/02 07:03:18;;;;;;;45.00;32.53;;;;;;;;;;5051085;28;20171;-58
2022/03/02 07:05:44;;;;;;;46.17;28.23;;;;;;;;;;5053135;28;20021;-58
2022/03/02 07:08:09;;;;;;;44.05;28.55;;;;;;;;;;5051082;28;20055;-58
2022/03/02 07:10:35;;;;;;;47.72;30.63;;;;;;;;;;5052745;28;20016;-58
2022/03/02 07:13:01;;;;;;;50.63;30.02;;;;;;;;;;5050745;28;20496;-57
2022/03/02 07:15:27;;;;;;;41.83;27.05;;;;;;;;;;5052339;28;20032;-57
2022/03/02 07:17:52;;;;;;;37.03;25.85;;;;;;;;;;5050800;28;20037;-57
2022/03/02 07:20:17;;;;;;;40.15;27.17;;;;;;;;;;5052615;28;20021;-58
2022/03/02 07:22:51;;;;;;;34.88;25.23;;;;;;;;;;5050898;28;20057;-57
2022/03/02 07:25:22;;;;;;;32.67;25.38;;;;;;;;;;5052194;28;20028;-58
2022/03/02 07:27:49;;;;;;;41.30;23.75;;;;;;;;;;5049510;28;20037;-57
2022/03/02 07:30:14;;;;;;;39.25;24.98;;;;;;;;;;5052186;28;20032;-58
2022/03/02 07:32:41;;;;;;;32.90;23.35;;;;;;;;;;5049968;28;20029;-58
2022/03/02 07:35:07;;;;;;;33.63;24.17;;;;;;;;;;5052160;28;20060;-57
2022/03/02 07:37:32;;;;;;;32.97;21.77;;;;;;;;;;5050880;28;20032;-57
2022/03/02 07:39:57;;;;;;;28.17;20.17;;;;;;;;;;5051902;28;20021;-58
2022/03/02 07:42:23;;;;;;;38.30;22.02;;;;;;;;;;5050503;28;20500;-58
2022/03/02 07:44:49;;;;;;;31.23;22.10;;;;;;;;;;5052341;28;20029;-58
2022/03/02 07:47:14;;;;;;;27.55;22.17;;;;;;;;;;5050021;28;20105;-57
2022/03/02 07:49:40;;;;;;;35.28;24.50;;;;;;;;;;5052100;28;20017;-58
2022/03/02 07:52:05;;;;;;;32.42;22.27;;;;;;;;;;5050440;28;20029;-58
2022/03/02 07:54:34;;;;;;;31.08;22.55;;;;;;;;;;5051644;28;20043;-58
2022/03/02 07:57:00;;;;;;;36.42;20.60;;;;;;;;;;5050225;28;20021;-58
2022/03/02 07:59:25;;;;;;;42.63;24.73;;;;;;;;;;5051384;28;20057;-58
2022/03/02 08:01:51;;;;;;;33.45;21.67;;;;;;;;;;5048487;28;20114;-58
2022/03/02 08:04:16;;;;;;;32.58;21.38;;;;;;;;;;5051253;28;20025;-58
2022/03/02 08:06:41;;;;;;;35.60;23.02;;;;;;;;;;5050167;28;20036;-58
2022/03/02 08:09:08;;;;;;;31.70;21.50;;;;;;;;;;5050967;28;20025;-58
2022/03/02 08:11:34;;;;;;;31.13;22.88;;;;;;;;;;5049776;28;20028;-58
2022/03/02 08:14:00;;;;;;;33.17;23.02;;;;;;;;;;5051308;28;20027;-58
2022/03/02 08:16:28;;;;;;;30.83;23.50;;;;;;;;;;5044245;28;20127;-58
2022/03/02 08:18:53;;;;;;;23.27;17.55;;;;;;;;;;5051454;28;20032;-58
2022/03/02 08:21:20;;;;;;;32.15;21.52;;;;;;;;;;5058939;28;20375;-57
2022/03/02 08:23:47;;;;;;;25.83;19.85;;;;;;;;;;5070861;28;20044;-58
2022/03/02 08:26:13;;;;;;;24.27;19.55;;;;;;;;;;5071073;28;20020;-58
2022/03/02 08:28:40;;;;;;;27.23;19.20;;;;;;;;;;5067871;28;20067;-58
2022/03/02 08:31:06;;;;;;;24.35;19.65;;;;;;;;;;5050794;28;20487;-58
2022/03/02 08:33:34;;;;;;;25.60;17.70;;;;;;;;;;5058874;28;20045;-58
2022/03/02 08:35:59;;;;;;;23.50;17.13;;;;;;;;;;5071098;28;20467;-56
2022/03/02 08:38:25;;;;;;;24.05;17.63;;;;;;;;;;5069163;28;20049;-58
2022/03/02 08:40:50;;;;;;;21.27;17.27;;;;;;;;;;5071046;28;20384;-56
2022/03/02 08:43:16;;;;;;;21.70;17.65;;;;;;;;;;5069309;28;20064;-56
2022/03/02 08:45:43;;;;;;;22.05;17.00;;;;;;;;;;5070863;28;20031;-56
2022/03/02 08:48:10;;;;;;;22.48;15.60;;;;;;;;;;5069141;28;20381;-56
2022/03/02 08:50:35;;;;;;;21.10;16.60;;;;;;;;;;5071407;28;20066;-56
2022/03/02 08:53:00;;;;;;;18.23;16.08;;;;;;;;;;5053432;28;20029;-56
2022/03/02 08:55:30;;;;;;;22.38;17.08;;;;;;;;;;5052287;28;20465;-56
2022/03/02 08:57:57;;;;;;;22.60;16.80;;;;;;;;;;5060838;28;20051;-56
2022/03/02 09:00:22;;;;;;;33.75;16.02;;;;;;;;;;5054314;28;20472;-56
2022/03/02 09:02:47;;;;;;;19.70;15.52;;;;;;;;;;5046826;28;20040;-56
2022/03/02 09:05:12;;;;;;;20.10;14.30;;;;;;;;;;5038531;28;20886;-56
2022/03/02 09:07:37;;;;;;;19.02;15.40;;;;;;;;;;5029261;28;20121;-57
2022/03/02 09:10:03;;;;;;;18.00;14.35;;;;;;;;;;5054134;28;20036;-57
2022/03/02 09:12:28;;;;;;;17.02;13.43;;;;;;;;;;5050000;28;20033;-58
2022/03/02 09:14:54;;;;;;;20.45;14.15;;;;;;;;;;5067378;28;20013;-58
2022/03/02 09:17:24;;;;;;;16.10;11.98;;;;;;;;;;5053967;28;20087;-58
2022/03/02 09:19:49;;;;;;;16.02;12.80;;;;;;;;;;5062217;28;20075;-58
2022/03/02 09:22:15;;;;;;;15.80;12.52;;;;;;;;;;5060397;28;20036;-58
2022/03/02 09:24:42;;;;;;;15.98;13.88;;;;;;;;;;5054729;28;20021;-58
2022/03/02 09:27:08;;;;;;;16.73;13.07;;;;;;;;;;5065544;28;20484;-58
2022/03/02 09:29:36;;;;;;;16.05;12.65;;;;;;;;;;5056625;28;20096;-58
2022/03/02 09:32:03;;;;;;;16.02;13.02;;;;;;;;;;5058142;28;20129;-58
2022/03/02 09:34:29;;;;;;;14.07;9.77;;;;;;;;;;5064842;28;20078;-58
2022/03/02 09:36:55;;;;;;;16.17;12.43;;;;;;;;;;5051700;28;20029;-58
2022/03/02 09:39:21;;;;;;;17.83;11.68;;;;;;;;;;5065679;28;20419;-58
2022/03/02 09:41:52;;;;;;;16.38;11.98;;;;;;;;;;5057334;28;20510;-58
2022/03/02 09:44:19;;;;;;;16.00;11.43;;;;;;;;;;5057230;28;20388;-58
2022/03/02 09:46:48;;;;;;;15.65;11.77;;;;;;;;;;5065728;28;20039;-58
2022/03/02 09:49:14;;;;;;;12.60;10.80;;;;;;;;;;5038464;28;20025;-58
2022/03/02 09:51:40;;;;;;;18.02;14.43;;;;;;;;;;5061145;28;20036;-58
2022/03/02 09:54:05;;;;;;;15.73;10.35;;;;;;;;;;5061298;28;20028;-58
2022/03/02 09:56:32;;;;;;;14.05;11.95;;;;;;;;;;5056201;28;20013;-58
2022/03/02 09:58:57;;;;;;;15.30;11.40;;;;;;;;;;5070177;28;20371;-58
2022/03/02 10:01:24;;;;;;;16.67;11.65;;;;;;;;;;5057482;28;20066;-58
2022/03/02 10:03:50;;;;;;;18.77;12.80;;;;;;;;;;5065389;28;20380;-58
2022/03/02 10:06:19;;;;;;;17.35;11.40;;;;;;;;;;5065772;28;20023;-58
2022/03/02 10:08:48;;;;;;;15.20;12.38;;;;;;;;;;5056043;28;20041;-58
2022/03/02 10:11:24;;;;;;;18.20;12.75;;;;;;;;;;5041446;28;20015;-58
2022/03/02 10:13:49;;;;;;;19.88;11.10;;;;;;;;;;5063379;28;20037;-58
2022/03/02 10:16:19;;;;;;;13.43;10.48;;;;;;;;;;5066115;28;20043;-58
2022/03/02 10:18:49;;;;;;;13.57;11.90;;;;;;;;;;5056212;28;20052;-58
2022/03/02 10:21:15;;;;;;;19.65;12.88;;;;;;;;;;5041154;28;20471;-58
2022/03/02 10:23:41;;;;;;;16.05;9.85;;;;;;;;;;5064275;28;20052;-58
2022/03/02 10:26:10;;;;;;;15.18;12.65;;;;;;;;;;5055199;28;20031;-58
2022/03/02 10:28:45;;;;;;;20.67;14.52;;;;;;;;;;5055033;28;20037;-58
2022/03/02 10:31:37;;;;;;;18.05;13.10;;;;;;;;;;5063619;28;20096;-58
2022/03/02 10:34:21;;;;;;;16.52;11.93;;;;;;;;;;5039778;28;20492;-58
2022/03/02 10:36:50;;;;;;;13.85;11.45;;;;;;;;;;5050894;28;20480;-57
2022/03/02 10:39:15;;;;;;;;;;;;;;;;;;5063947;28;20019;-58
2022/03/02 10:41:43;;;;;;;13.40;10.45;;;;;;;;;;5056963;28;19913;-58
2022/03/02 10:44:15;;;;;;;17.48;11.93;;;;;;;;;;5053061;28;20017;-58
2022/03/02 10:46:41;;;;;;;13.80;11.77;;;;;;;;;;5051888;28;20112;-58
2022/03/02 10:49:20;;;;;;;13.93;10.35;;;;;;;;;;5052909;28;20043;-58
2022/03/02 10:51:45;;;;;;;12.60;10.52;;;;;;;;;;5068697;28;20040;-58
2022/03/02 10:54:15;;;;;;;14.90;11.05;;;;;;;;;;5072850;28;20143;-58
2022/03/02 10:56:40;;;;;;;15.13;11.13;;;;;;;;;;5071631;28;20048;-58
2022/03/02 10:59:06;;;;;;;11.07;9.27;;;;;;;;;;5053585;28;20048;-58
2022/03/02 11:01:32;;;;;;;13.88;10.57;;;;;;;;;;5052039;28;20033;-58
2022/03/02 11:03:57;;;;;;;13.70;11.45;;;;;;;;;;5050847;28;20100;-58
2022/03/02 11:06:24;;;;;;;16.20;9.77;;;;;;;;;;5039988;28;20031;-57
2022/03/02 11:08:50;;;;;;;12.00;9.27;;;;;;;;;;5051784;28;20029;-58
2022/03/02 11:11:17;;;;;;;14.50;12.07;;;;;;;;;;5048295;28;20113;-57
2022/03/02 11:13:42;;;;;;;16.55;10.70;;;;;;;;;;5050921;28;20507;-58
2022/03/02 11:16:07;;;;;;;12.48;10.27;;;;;;;;;;5052528;28;20016;-58
2022/03/02 11:18:40;;;;;;;11.20;9.97;;;;;;;;;;5048309;28;20503;-58
2022/03/02 11:21:05;;;;;;;11.52;9.55;;;;;;;;;;5049358;28;20025;-58
2022/03/02 11:23:33;;;;;;;10.87;8.90;;;;;;;;;;5049282;28;20055;-58
2022/03/02 11:26:04;;;;;;;13.60;8.90;;;;;;;;;;5052749;28;20020;-58
2022/03/02 11:28:30;;;;;;;12.10;10.90;;;;;;;;;;5050672;28;20459;-58
2022/03/02 11:31:00;;;;;;;15.68;11.88;;;;;;;;;;5052156;28;20468;-58
2022/03/02 11:33:29;;;;;;;13.65;12.20;;;;;;;;;;5050881;28;20518;-58
2022/03/02 11:35:59;;;;;;;11.93;9.68;;;;;;;;;;5052132;28;20021;-58
2022/03/02 11:38:27;;;;;;;14.05;10.05;;;;;;;;;;5051004;28;20045;-57
2022/03/02 11:40:52;;;;;;;12.50;10.02;;;;;;;;;;5052480;28;20708;-57
2022/03/02 11:43:17;;;;;;;11.93;10.18;;;;;;;;;;5049914;28;20033;-58
2022/03/02 11:45:42;;;;;;;10.80;8.90;;;;;;;;;;5052225;28;20051;-58
2022/03/02 11:48:13;;;;;;;11.37;9.47;;;;;;;;;;5050134;28;20040;-58
2022/03/02 11:50:58;;;;;;;13.38;11.43;;;;;;;;;;5052166;28;20455;-57
2022/03/02 11:53:30;;;;;;;12.80;9.90;;;;;;;;;;5050394;28;20111;-57
2022/03/02 11:55:56;;;;;;;11.73;9.88;;;;;;;;;;5052132;28;20108;-57
2022/03/02 11:58:21;;;;;;;13.40;10.73;;;;;;;;;;5050190;28;20128;-58
2022/03/02 12:00:46;;;;;;;12.88;9.77;;;;;;;;;;5052014;28;20033;-58
2022/03/02 12:03:11;;;;;;;10.00;8.52;;;;;;;;;;5050127;28;20037;-58
2022/03/02 12:05:37;;;;;;;15.70;9.80;;;;;;;;;;5051649;28;20053;-58
2022/03/02 12:08:06;;;;;;;10.95;9.48;;;;;;;;;;5050058;28;20045;-58
2022/03/02 12:10:34;;;;;;;11.30;9.00;;;;;;;;;;5051899;28;20016;-57
2022/03/02 12:12:59;;;;;;;12.18;10.90;;;;;;;;;;5049594;28;20092;-58
2022/03/02 12:15:25;;;;;;;11.83;9.30;;;;;;;;;;5051608;28;20460;-57
2022/03/02 12:17:51;;;;;;;11.32;10.13;;;;;;;;;;5050385;28;20029;-58
2022/03/02 12:20:20;;;;;;;11.45;9.43;;;;;;;;;;5050635;28;20020;-57
2022/03/02 12:22:49;;;;;;;9.27;8.00;;;;;;;;;;5050063;28;20083;-58
2022/03/02 12:25:17;;;;;;;11.57;10.27;;;;;;;;;;5051418;28;20403;-58
2022/03/02 12:27:55;;;;;;;11.20;9.00;;;;;;;;;;5049833;28;20590;-58
2022/03/02 12:30:20;;;;;;;13.25;9.93;;;;;;;;;;5051721;28;20409;-58
2022/03/02 12:32:45;;;;;;;11.80;8.90;;;;;;;;;;5041852;28;20111;-58
2022/03/02 12:35:13;;;;;;;15.05;11.43;;;;;;;;;;5045686;28;20053;-58
2022/03/02 12:37:39;;;;;;;11.85;8.38;;;;;;;;;;5049596;28;20029;-58
2022/03/02 12:40:06;;;;;;;12.45;9.77;;;;;;;;;;5070946;28;20024;-58
2022/03/02 12:42:32;;;;;;;11.00;9.57;;;;;;;;;;5069244;28;20119;-58
2022/03/02 12:44:57;;;;;;;13.27;9.52;;;;;;;;;;5053679;28;20104;-58
2022/03/02 12:47:27;;;;;;;14.13;9.98;;;;;;;;;;5049337;28;20037;-57
2022/03/02 12:49:53;;;;;;;15.38;11.00;;;;;;;;;;5052286;28;20496;-58
2022/03/02 12:52:20;;;;;;;12.50;9.55;;;;;;;;;;5060669;28;20112;-58
2022/03/02 12:54:47;;;;;;;14.70;11.48;;;;;;;;;;5056312;28;20155;-58
2022/03/02 12:57:14;;;;;;;9.98;8.02;;;;;;;;;;5065366;28;20024;-58
2022/03/02 12:59:40;;;;;;;11.48;10.30;;;;;;;;;;5056599;28;20046;-58
2022/03/02 13:02:14;;;;;;;11.52;10.30;;;;;;;;;;5060252;28;20484;-58
2022/03/02 13:04:45;;;;;;;12.18;9.95;;;;;;;;;;5064593;28;20048;-58
2022/03/02 13:07:15;;;;;;;12.35;8.57;;;;;;;;;;5052637;28;20029;-58
2022/03/02 13:09:48;;;;;;;16.27;8.73;;;;;;;;;;5064748;28;20494;-58
2022/03/02 13:12:30;;;;;;;9.45;7.45;;;;;;;;;;5059104;28;20491;-58
2022/03/02 13:14:56;;;;;;;10.63;8.00;;;;;;;;;;5054466;28;20033;-58
2022/03/02 13:17:21;;;;;;;11.50;9.45;;;;;;;;;;5069148;28;20029;-57
2022/03/02 13:19:48;;;;;;;14.43;8.88;;;;;;;;;;5070457;28;20095;-58
2022/03/02 13:22:22;;;;;;;20.23;10.43;;;;;;;;;;5069145;28;20032;-57
2022/03/02 13:24:50;;;;;;;14.82;9.05;;;;;;;;;;5061454;28;20064;-57
2022/03/02 13:27:16;;;;;;;9.98;8.95;;;;;;;;;;5047452;28;20037;-57
2022/03/02 13:29:52;;;;;;;11.40;7.93;;;;;;;;;;5050739;28;20021;-57
2022/03/02 13:32:18;;;;;;;13.60;8.05;;;;;;;;;;5054104;28;20068;-57
2022/03/02 13:35:02;;;;;;;12.45;8.82;;;;;;;;;;5053318;28;20037;-57
2022/03/02 13:37:47;;;;;;;9.68;7.40;;;;;;;;;;5053139;28;20048;-57
2022/03/02 13:40:32;;;;;;;10.25;8.80;;;;;;;;;;5053888;28;20036;-57
2022/03/02 13:43:06;;;;;;;14.35;10.38;;;;;;;;;;5052592;28;20036;-57
2022/03/02 13:45:38;;;;;;;17.17;9.55;;;;;;;;;;5054118;28;20079;-57
2022/03/02 13:48:14;;;;;;;11.40;10.27;;;;;;;;;;5052341;28;20068;-57
2022/03/02 13:50:58;;;;;;;10.13;8.45;;;;;;;;;;5054625;28;20017;-57
2022/03/02 13:53:31;;;;;;;13.27;10.02;;;;;;;;;;5053163;28;20037;-57
2022/03/02 13:56:03;;;;;;;11.52;10.32;;;;;;;;;;5054022;28;20016;-58
2022/03/02 13:58:28;;;;;;;17.75;11.27;;;;;;;;;;5052743;28;20033;-57
2022/03/02 14:00:54;;;;;;;11.07;8.93;;;;;;;;;;5054512;28;20024;-58
2022/03/02 14:03:30;;;;;;;13.75;10.02;;;;;;;;;;5052554;28;20123;-57
2022/03/02 14:05:55;;;;;;;10.45;8.50;;;;;;;;;;5053953;28;20492;-58
2022/03/02 14:08:20;;;;;;;14.23;9.20;;;;;;;;;;5052460;28;20041;-58
2022/03/02 14:10:46;;;;;;;11.45;10.25;;;;;;;;;;5053972;28;20416;-58
2022/03/02 14:13:11;;;;;;;13.67;10.07;;;;;;;;;;5051844;28;20033;-57
2022/03/02 14:15:36;;;;;;;13.63;10.13;;;;;;;;;;5053872;28;20454;-57